sensor_id;sensor_type;location;lat;lon;timestamp;P1;durP1;ratioP1;P2;durP2;ratioP2
71570;SDS011;59407;42.682;23.322;2023-03-21T00:00:56;22.95;;;12.90;;
71570;SDS011;59407;42.682;23.322;2023-03-21T00:03:28;24.77;;;13.43;;
71570;SDS011;59407;42.682;23.322;2023-03-21T00:05:55;21.92;;;12.55;;
71570;SDS011;59407;42.682;23.322;2023-03-21T00:08:22;30.60;;;15.68;;
71570;SDS011;59407;42.682;23.322;2023-03-21T00:10:56;26.20;;;15.07;;
71570;SDS011;59407;42.682;23.322;2023-03-21T00:13:25;27.75;;;16.13;;
71570;SDS011;59407;42.682;23.322;2023-03-21T00:15:56;27.20;;;15.20;;
71570;SDS011;59407;42.682;23.322;2023-03-21T00:18:23;31.45;;;16.40;;
71570;SDS011;59407;42.682;23.322;2023-03-21T00:20:59;30.50;;;15.95;;
71570;SDS011;59407;42.682;23.322;2023-03-21T00:23:28;27.80;;;15.55;;
71570;SDS011;59407;42.682;23.322;2023-03-21T00:25:55;26.73;;;14.97;;
71570;SDS011;59407;42.682;23.322;2023-03-21T00:28:22;25.13;;;15.43;;
71570;SDS011;59407;42.682;23.322;2023-03-21T00:30:48;27.58;;;14.68;;
71570;SDS011;59407;42.682;23.322;2023-03-21T00:33:14;28.45;;;15.88;;
71570;SDS011;59407;42.682;23.322;2023-03-21T00:35:46;25.75;;;15.18;;
71570;SDS011;59407;42.682;23.322;2023-03-21T00:38:16;27.23;;;14.67;;
71570;SDS011;59407;42.682;23.322;2023-03-21T00:40:42;27.60;;;14.68;;
71570;SDS011;59407;42.682;23.322;2023-03-21T00:43:08;25.13;;;15.00;;
71570;SDS011;59407;42.682;23.322;2023-03-21T00:45:35;26.02;;;14.65;;
71570;SDS011;59407;42.682;23.322;2023-03-21T00:48:02;26.03;;;15.50;;
71570;SDS011;59407;42.682;23.322;2023-03-21T00:50:29;27.33;;;15.35;;
71570;SDS011;59407;42.682;23.322;2023-03-21T00:52:56;27.27;;;15.35;;
71570;SDS011;59407;42.682;23.322;2023-03-21T00:55:22;29.30;;;15.87;;
71570;SDS011;59407;42.682;23.322;2023-03-21T00:57:48;25.02;;;15.27;;
71570;SDS011;59407;42.682;23.322;2023-03-21T01:00:14;25.27;;;16.10;;
71570;SDS011;59407;42.682;23.322;2023-03-21T01:02:42;28.92;;;14.75;;
71570;SDS011;59407;42.682;23.322;2023-03-21T01:05:22;24.83;;;14.80;;
71570;SDS011;59407;42.682;23.322;2023-03-21T01:08:08;23.23;;;13.97;;
71570;SDS011;59407;42.682;23.322;2023-03-21T01:10:38;23.05;;;15.48;;
71570;SDS011;59407;42.682;23.322;2023-03-21T01:13:07;24.52;;;14.13;;
71570;SDS011;59407;42.682;23.322;2023-03-21T01:15:34;24.45;;;14.43;;
71570;SDS011;59407;42.682;23.322;2023-03-21T01:18:00;27.50;;;15.43;;
71570;SDS011;59407;42.682;23.322;2023-03-21T01:20:26;24.80;;;14.33;;
71570;SDS011;59407;42.682;23.322;2023-03-21T01:22:52;23.20;;;13.95;;
71570;SDS011;59407;42.682;23.322;2023-03-21T01:25:17;21.95;;;13.43;;
71570;SDS011;59407;42.682;23.322;2023-03-21T01:27:46;21.70;;;13.30;;
71570;SDS011;59407;42.682;23.322;2023-03-21T01:30:12;23.05;;;13.60;;
71570;SDS011;59407;42.682;23.322;2023-03-21T01:32:38;29.67;;;15.02;;
71570;SDS011;59407;42.682;23.322;2023-03-21T01:35:05;24.35;;;13.75;;
71570;SDS011;59407;42.682;23.322;2023-03-21T01:37:33;23.25;;;13.48;;
71570;SDS011;59407;42.682;23.322;2023-03-21T01:39:59;22.13;;;13.50;;
71570;SDS011;59407;42.682;23.322;2023-03-21T01:42:27;22.83;;;13.85;;
71570;SDS011;59407;42.682;23.322;2023-03-21T01:45:03;23.48;;;13.95;;
71570;SDS011;59407;42.682;23.322;2023-03-21T01:47:31;25.38;;;14.00;;
71570;SDS011;59407;42.682;23.322;2023-03-21T01:49:58;21.63;;;13.47;;
71570;SDS011;59407;42.682;23.322;2023-03-21T01:52:26;24.77;;;13.65;;
71570;SDS011;59407;42.682;23.322;2023-03-21T01:54:54;18.98;;;12.30;;
71570;SDS011;59407;42.682;23.322;2023-03-21T01:57:23;19.88;;;12.95;;
71570;SDS011;59407;42.682;23.322;2023-03-21T01:59:59;21.23;;;12.70;;
71570;SDS011;59407;42.682;23.322;2023-03-21T02:02:40;20.42;;;11.13;;
71570;SDS011;59407;42.682;23.322;2023-03-21T02:06:01;22.67;;;12.70;;
71570;SDS011;59407;42.682;23.322;2023-03-21T02:08:16;18.52;;;11.63;;
71570;SDS011;59407;42.682;23.322;2023-03-21T02:10:42;18.88;;;12.15;;
71570;SDS011;59407;42.682;23.322;2023-03-21T02:13:10;20.80;;;11.93;;
71570;SDS011;59407;42.682;23.322;2023-03-21T02:15:36;17.20;;;12.02;;
71570;SDS011;59407;42.682;23.322;2023-03-21T02:18:08;19.93;;;11.37;;
71570;SDS011;59407;42.682;23.322;2023-03-21T02:26:56;18.90;;;12.68;;
71570;SDS011;59407;42.682;23.322;2023-03-21T02:35:44;19.33;;;11.98;;
71570;SDS011;59407;42.682;23.322;2023-03-21T02:41:11;20.88;;;13.02;;
71570;SDS011;59407;42.682;23.322;2023-03-21T02:43:51;22.67;;;12.43;;
71570;SDS011;59407;42.682;23.322;2023-03-21T02:46:25;18.77;;;11.67;;
71570;SDS011;59407;42.682;23.322;2023-03-21T02:49:37;21.42;;;12.77;;
71570;SDS011;59407;42.682;23.322;2023-03-21T02:51:43;19.23;;;12.35;;
71570;SDS011;59407;42.682;23.322;2023-03-21T02:54:11;19.02;;;12.15;;
71570;SDS011;59407;42.682;23.322;2023-03-21T02:56:38;19.85;;;12.35;;
71570;SDS011;59407;42.682;23.322;2023-03-21T02:59:07;18.80;;;11.80;;
71570;SDS011;59407;42.682;23.322;2023-03-21T03:01:35;21.42;;;11.45;;
71570;SDS011;59407;42.682;23.322;2023-03-21T03:04:01;23.23;;;11.95;;
71570;SDS011;59407;42.682;23.322;2023-03-21T03:06:34;17.97;;;11.03;;
71570;SDS011;59407;42.682;23.322;2023-03-21T03:11:37;19.00;;;11.13;;
71570;SDS011;59407;42.682;23.322;2023-03-21T03:14:26;18.63;;;11.48;;
71570;SDS011;59407;42.682;23.322;2023-03-21T03:20:13;18.77;;;12.33;;
71570;SDS011;59407;42.682;23.322;2023-03-21T03:23:02;24.67;;;12.32;;
71570;SDS011;59407;42.682;23.322;2023-03-21T03:25:42;19.98;;;12.30;;
71570;SDS011;59407;42.682;23.322;2023-03-21T03:28:09;23.38;;;12.05;;
71570;SDS011;59407;42.682;23.322;2023-03-21T03:30:36;18.92;;;12.32;;
71570;SDS011;59407;42.682;23.322;2023-03-21T03:33:03;19.83;;;11.80;;
71570;SDS011;59407;42.682;23.322;2023-03-21T03:35:31;19.10;;;12.35;;
71570;SDS011;59407;42.682;23.322;2023-03-21T03:38:03;16.75;;;11.52;;
71570;SDS011;59407;42.682;23.322;2023-03-21T03:40:41;20.10;;;11.75;;
71570;SDS011;59407;42.682;23.322;2023-03-21T03:43:13;18.38;;;11.82;;
71570;SDS011;59407;42.682;23.322;2023-03-21T03:45:46;21.27;;;11.50;;
71570;SDS011;59407;42.682;23.322;2023-03-21T03:56:10;19.53;;;10.67;;
71570;SDS011;59407;42.682;23.322;2023-03-21T03:58:39;14.60;;;8.52;;
71570;SDS011;59407;42.682;23.322;2023-03-21T04:01:08;13.90;;;9.00;;
71570;SDS011;59407;42.682;23.322;2023-03-21T04:03:36;17.98;;;9.60;;
71570;SDS011;59407;42.682;23.322;2023-03-21T04:06:05;18.05;;;9.65;;
71570;SDS011;59407;42.682;23.322;2023-03-21T04:08:32;14.43;;;9.20;;
71570;SDS011;59407;42.682;23.322;2023-03-21T04:11:05;17.73;;;9.75;;
71570;SDS011;59407;42.682;23.322;2023-03-21T04:13:32;13.65;;;8.77;;
71570;SDS011;59407;42.682;23.322;2023-03-21T04:15:58;14.90;;;8.90;;
71570;SDS011;59407;42.682;23.322;2023-03-21T04:18:24;17.63;;;9.88;;
71570;SDS011;59407;42.682;23.322;2023-03-21T04:20:52;16.20;;;10.30;;
71570;SDS011;59407;42.682;23.322;2023-03-21T04:23:20;15.43;;;9.98;;
71570;SDS011;59407;42.682;23.322;2023-03-21T04:25:47;14.73;;;9.55;;
71570;SDS011;59407;42.682;23.322;2023-03-21T04:28:14;17.20;;;10.97;;
71570;SDS011;59407;42.682;23.322;2023-03-21T04:30:42;32.38;;;28.45;;
71570;SDS011;59407;42.682;23.322;2023-03-21T04:33:10;20.10;;;13.38;;
71570;SDS011;59407;42.682;23.322;2023-03-21T04:35:39;15.98;;;10.35;;
71570;SDS011;59407;42.682;23.322;2023-03-21T04:38:06;19.50;;;10.93;;
71570;SDS011;59407;42.682;23.322;2023-03-21T04:40:32;19.50;;;10.77;;
71570;SDS011;59407;42.682;23.322;2023-03-21T04:42:57;20.42;;;10.68;;
71570;SDS011;59407;42.682;23.322;2023-03-21T04:45:25;18.97;;;9.97;;
71570;SDS011;59407;42.682;23.322;2023-03-21T04:47:51;17.38;;;10.40;;
71570;SDS011;59407;42.682;23.322;2023-03-21T04:50:19;14.68;;;9.65;;
71570;SDS011;59407;42.682;23.322;2023-03-21T04:52:45;17.10;;;10.18;;
71570;SDS011;59407;42.682;23.322;2023-03-21T04:55:12;17.87;;;9.27;;
71570;SDS011;59407;42.682;23.322;2023-03-21T04:57:41;16.60;;;10.00;;
71570;SDS011;59407;42.682;23.322;2023-03-21T05:00:07;15.83;;;8.77;;
71570;SDS011;59407;42.682;23.322;2023-03-21T05:02:34;12.85;;;8.48;;
71570;SDS011;59407;42.682;23.322;2023-03-21T05:05:04;19.63;;;10.23;;
71570;SDS011;59407;42.682;23.322;2023-03-21T05:07:29;17.42;;;9.88;;
71570;SDS011;59407;42.682;23.322;2023-03-21T05:09:56;18.65;;;9.25;;
71570;SDS011;59407;42.682;23.322;2023-03-21T05:12:23;17.37;;;10.17;;
71570;SDS011;59407;42.682;23.322;2023-03-21T05:14:48;18.25;;;9.35;;
71570;SDS011;59407;42.682;23.322;2023-03-21T05:17:14;19.47;;;9.53;;
71570;SDS011;59407;42.682;23.322;2023-03-21T05:19:48;17.85;;;9.45;;
71570;SDS011;59407;42.682;23.322;2023-03-21T05:22:14;17.35;;;9.02;;
71570;SDS011;59407;42.682;23.322;2023-03-21T05:24:43;16.67;;;8.73;;
71570;SDS011;59407;42.682;23.322;2023-03-21T05:27:18;16.08;;;8.93;;
71570;SDS011;59407;42.682;23.322;2023-03-21T05:30:09;17.67;;;8.83;;
71570;SDS011;59407;42.682;23.322;2023-03-21T05:32:37;17.35;;;9.27;;
71570;SDS011;59407;42.682;23.322;2023-03-21T05:35:03;18.92;;;10.20;;
71570;SDS011;59407;42.682;23.322;2023-03-21T05:37:29;20.00;;;9.97;;
71570;SDS011;59407;42.682;23.322;2023-03-21T05:39:55;22.10;;;10.50;;
71570;SDS011;59407;42.682;23.322;2023-03-21T05:42:21;15.65;;;10.40;;
71570;SDS011;59407;42.682;23.322;2023-03-21T05:44:48;22.42;;;12.63;;
71570;SDS011;59407;42.682;23.322;2023-03-21T05:47:16;23.10;;;13.17;;
71570;SDS011;59407;42.682;23.322;2023-03-21T05:49:45;20.77;;;13.45;;
71570;SDS011;59407;42.682;23.322;2023-03-21T05:52:12;24.58;;;12.63;;
71570;SDS011;59407;42.682;23.322;2023-03-21T05:54:37;21.90;;;12.80;;
71570;SDS011;59407;42.682;23.322;2023-03-21T05:57:04;18.58;;;10.65;;
71570;SDS011;59407;42.682;23.322;2023-03-21T05:59:30;22.07;;;12.00;;
71570;SDS011;59407;42.682;23.322;2023-03-21T06:01:56;17.88;;;11.13;;
71570;SDS011;59407;42.682;23.322;2023-03-21T06:04:22;19.83;;;10.85;;
71570;SDS011;59407;42.682;23.322;2023-03-21T06:06:49;22.73;;;10.93;;
71570;SDS011;59407;42.682;23.322;2023-03-21T06:09:24;19.07;;;10.40;;
71570;SDS011;59407;42.682;23.322;2023-03-21T06:11:51;16.80;;;10.13;;
71570;SDS011;59407;42.682;23.322;2023-03-21T06:14:18;19.60;;;10.07;;
71570;SDS011;59407;42.682;23.322;2023-03-21T06:16:46;14.07;;;9.20;;
71570;SDS011;59407;42.682;23.322;2023-03-21T06:19:12;14.60;;;9.43;;
71570;SDS011;59407;42.682;23.322;2023-03-21T06:21:39;25.42;;;11.00;;
71570;SDS011;59407;42.682;23.322;2023-03-21T06:24:04;19.80;;;10.43;;
71570;SDS011;59407;42.682;23.322;2023-03-21T06:26:30;26.60;;;10.80;;
71570;SDS011;59407;42.682;23.322;2023-03-21T06:28:56;21.63;;;11.00;;
71570;SDS011;59407;42.682;23.322;2023-03-21T06:31:22;22.43;;;11.53;;
71570;SDS011;59407;42.682;23.322;2023-03-21T06:33:49;22.58;;;11.05;;
71570;SDS011;59407;42.682;23.322;2023-03-21T06:36:16;15.93;;;9.30;;
71570;SDS011;59407;42.682;23.322;2023-03-21T06:38:43;21.13;;;10.80;;
71570;SDS011;59407;42.682;23.322;2023-03-21T06:41:11;19.35;;;10.52;;
71570;SDS011;59407;42.682;23.322;2023-03-21T06:43:37;17.40;;;8.97;;
71570;SDS011;59407;42.682;23.322;2023-03-21T06:46:02;13.52;;;8.32;;
71570;SDS011;59407;42.682;23.322;2023-03-21T06:48:30;14.13;;;8.35;;
71570;SDS011;59407;42.682;23.322;2023-03-21T06:50:57;14.10;;;8.13;;
71570;SDS011;59407;42.682;23.322;2023-03-21T06:53:24;11.07;;;8.02;;
71570;SDS011;59407;42.682;23.322;2023-03-21T06:55:58;11.05;;;6.85;;
71570;SDS011;59407;42.682;23.322;2023-03-21T06:58:24;14.32;;;8.30;;
71570;SDS011;59407;42.682;23.322;2023-03-21T07:00:51;15.88;;;8.15;;
71570;SDS011;59407;42.682;23.322;2023-03-21T07:03:18;15.70;;;8.87;;
71570;SDS011;59407;42.682;23.322;2023-03-21T07:05:46;15.18;;;8.63;;
71570;SDS011;59407;42.682;23.322;2023-03-21T07:08:12;17.52;;;9.52;;
71570;SDS011;59407;42.682;23.322;2023-03-21T07:10:39;17.77;;;11.00;;
71570;SDS011;59407;42.682;23.322;2023-03-21T07:13:11;18.27;;;11.70;;
71570;SDS011;59407;42.682;23.322;2023-03-21T07:15:37;19.30;;;11.43;;
71570;SDS011;59407;42.682;23.322;2023-03-21T07:18:03;22.45;;;12.60;;
71570;SDS011;59407;42.682;23.322;2023-03-21T07:20:29;26.35;;;15.68;;
71570;SDS011;59407;42.682;23.322;2023-03-21T07:22:55;24.70;;;17.90;;
71570;SDS011;59407;42.682;23.322;2023-03-21T07:25:21;37.90;;;20.45;;
71570;SDS011;59407;42.682;23.322;2023-03-21T07:27:47;39.47;;;21.30;;
71570;SDS011;59407;42.682;23.322;2023-03-21T07:30:12;34.95;;;20.75;;
71570;SDS011;59407;42.682;23.322;2023-03-21T07:32:39;36.17;;;19.90;;
71570;SDS011;59407;42.682;23.322;2023-03-21T07:35:06;33.28;;;19.15;;
71570;SDS011;59407;42.682;23.322;2023-03-21T07:37:33;34.65;;;18.50;;
71570;SDS011;59407;42.682;23.322;2023-03-21T07:39:58;29.10;;;18.87;;
71570;SDS011;59407;42.682;23.322;2023-03-21T07:42:26;30.13;;;17.03;;
71570;SDS011;59407;42.682;23.322;2023-03-21T07:44:52;28.10;;;16.75;;
71570;SDS011;59407;42.682;23.322;2023-03-21T07:47:19;30.67;;;16.95;;
71570;SDS011;59407;42.682;23.322;2023-03-21T07:49:46;20.95;;;13.25;;
71570;SDS011;59407;42.682;23.322;2023-03-21T07:52:13;22.17;;;12.48;;
71570;SDS011;59407;42.682;23.322;2023-03-21T07:54:44;22.43;;;12.70;;
71570;SDS011;59407;42.682;23.322;2023-03-21T07:57:09;19.00;;;12.55;;
71570;SDS011;59407;42.682;23.322;2023-03-21T07:59:37;18.70;;;12.43;;
71570;SDS011;59407;42.682;23.322;2023-03-21T08:02:04;22.33;;;12.38;;
71570;SDS011;59407;42.682;23.322;2023-03-21T08:04:36;18.98;;;12.23;;
71570;SDS011;59407;42.682;23.322;2023-03-21T08:07:02;22.13;;;13.48;;
71570;SDS011;59407;42.682;23.322;2023-03-21T08:09:28;23.93;;;12.37;;
71570;SDS011;59407;42.682;23.322;2023-03-21T08:11:55;21.02;;;11.68;;
71570;SDS011;59407;42.682;23.322;2023-03-21T08:14:22;26.08;;;14.10;;
71570;SDS011;59407;42.682;23.322;2023-03-21T08:16:48;22.80;;;12.47;;
71570;SDS011;59407;42.682;23.322;2023-03-21T08:19:13;20.13;;;11.45;;
71570;SDS011;59407;42.682;23.322;2023-03-21T08:21:41;14.67;;;8.70;;
71570;SDS011;59407;42.682;23.322;2023-03-21T08:24:07;15.75;;;9.05;;
71570;SDS011;59407;42.682;23.322;2023-03-21T08:26:32;14.63;;;9.80;;
71570;SDS011;59407;42.682;23.322;2023-03-21T08:28:58;16.65;;;10.05;;
71570;SDS011;59407;42.682;23.322;2023-03-21T08:31:24;13.88;;;9.10;;
71570;SDS011;59407;42.682;23.322;2023-03-21T08:33:50;14.63;;;9.00;;
71570;SDS011;59407;42.682;23.322;2023-03-21T08:36:18;18.60;;;9.65;;
71570;SDS011;59407;42.682;23.322;2023-03-21T08:38:45;20.85;;;12.50;;
71570;SDS011;59407;42.682;23.322;2023-03-21T08:41:12;15.20;;;9.57;;
71570;SDS011;59407;42.682;23.322;2023-03-21T08:43:59;19.10;;;9.43;;
71570;SDS011;59407;42.682;23.322;2023-03-21T08:46:25;15.50;;;9.48;;
71570;SDS011;59407;42.682;23.322;2023-03-21T08:48:51;9.50;;;6.93;;
71570;SDS011;59407;42.682;23.322;2023-03-21T08:51:17;12.52;;;7.53;;
71570;SDS011;59407;42.682;23.322;2023-03-21T08:53:42;13.80;;;8.70;;
71570;SDS011;59407;42.682;23.322;2023-03-21T08:56:09;12.18;;;8.13;;
71570;SDS011;59407;42.682;23.322;2023-03-21T08:58:35;16.50;;;9.80;;
71570;SDS011;59407;42.682;23.322;2023-03-21T09:01:01;16.90;;;9.02;;
71570;SDS011;59407;42.682;23.322;2023-03-21T09:03:27;17.00;;;9.98;;
71570;SDS011;59407;42.682;23.322;2023-03-21T09:05:54;16.50;;;9.70;;
71570;SDS011;59407;42.682;23.322;2023-03-21T09:08:20;14.85;;;10.10;;
71570;SDS011;59407;42.682;23.322;2023-03-21T09:10:53;17.67;;;8.98;;
71570;SDS011;59407;42.682;23.322;2023-03-21T09:13:19;18.52;;;9.77;;
71570;SDS011;59407;42.682;23.322;2023-03-21T09:15:45;14.57;;;8.88;;
71570;SDS011;59407;42.682;23.322;2023-03-21T09:18:12;14.20;;;9.20;;
71570;SDS011;59407;42.682;23.322;2023-03-21T09:20:39;15.05;;;8.80;;
71570;SDS011;59407;42.682;23.322;2023-03-21T09:23:05;15.30;;;8.88;;
71570;SDS011;59407;42.682;23.322;2023-03-21T09:25:32;15.77;;;9.13;;
71570;SDS011;59407;42.682;23.322;2023-03-21T09:27:58;17.90;;;10.17;;
71570;SDS011;59407;42.682;23.322;2023-03-21T09:30:24;17.48;;;9.60;;
71570;SDS011;59407;42.682;23.322;2023-03-21T09:32:51;14.38;;;9.07;;
71570;SDS011;59407;42.682;23.322;2023-03-21T09:35:17;14.32;;;8.57;;
71570;SDS011;59407;42.682;23.322;2023-03-21T09:37:44;17.63;;;8.77;;
71570;SDS011;59407;42.682;23.322;2023-03-21T09:40:18;19.47;;;9.20;;
71570;SDS011;59407;42.682;23.322;2023-03-21T09:42:59;13.27;;;8.57;;
71570;SDS011;59407;42.682;23.322;2023-03-21T09:45:39;16.63;;;9.13;;
71570;SDS011;59407;42.682;23.322;2023-03-21T09:48:18;21.65;;;15.35;;
71570;SDS011;59407;42.682;23.322;2023-03-21T09:51:09;17.65;;;9.40;;
71570;SDS011;59407;42.682;23.322;2023-03-21T09:53:39;16.07;;;9.50;;
71570;SDS011;59407;42.682;23.322;2023-03-21T09:56:07;16.77;;;9.93;;
71570;SDS011;59407;42.682;23.322;2023-03-21T09:58:43;20.10;;;9.95;;
71570;SDS011;59407;42.682;23.322;2023-03-21T10:01:18;16.23;;;10.48;;
71570;SDS011;59407;42.682;23.322;2023-03-21T10:03:52;14.95;;;10.38;;
71570;SDS011;59407;42.682;23.322;2023-03-21T10:06:20;16.97;;;10.03;;
71570;SDS011;59407;42.682;23.322;2023-03-21T10:08:53;16.17;;;10.27;;
71570;SDS011;59407;42.682;23.322;2023-03-21T10:11:24;16.52;;;10.57;;
71570;SDS011;59407;42.682;23.322;2023-03-21T10:13:53;16.38;;;11.15;;
71570;SDS011;59407;42.682;23.322;2023-03-21T10:18:50;17.40;;;11.00;;
71570;SDS011;59407;42.682;23.322;2023-03-21T10:21:25;15.98;;;10.23;;
71570;SDS011;59407;42.682;23.322;2023-03-21T10:23:56;17.27;;;10.53;;
71570;SDS011;59407;42.682;23.322;2023-03-21T10:26:23;18.20;;;10.23;;
71570;SDS011;59407;42.682;23.322;2023-03-21T10:28:56;17.23;;;10.63;;
71570;SDS011;59407;42.682;23.322;2023-03-21T10:31:25;17.52;;;10.82;;
71570;SDS011;59407;42.682;23.322;2023-03-21T10:33:54;17.90;;;9.60;;
71570;SDS011;59407;42.682;23.322;2023-03-21T10:36:23;19.93;;;10.30;;
71570;SDS011;59407;42.682;23.322;2023-03-21T10:38:57;17.98;;;10.88;;
71570;SDS011;59407;42.682;23.322;2023-03-21T10:41:26;18.30;;;10.82;;
71570;SDS011;59407;42.682;23.322;2023-03-21T10:44:11;23.47;;;10.03;;
71570;SDS011;59407;42.682;23.322;2023-03-21T10:46:54;16.13;;;10.25;;
71570;SDS011;59407;42.682;23.322;2023-03-21T10:49:21;16.17;;;8.43;;
71570;SDS011;59407;42.682;23.322;2023-03-21T10:51:52;13.25;;;9.50;;
71570;SDS011;59407;42.682;23.322;2023-03-21T10:54:20;15.83;;;9.60;;
71570;SDS011;59407;42.682;23.322;2023-03-21T10:56:54;16.50;;;9.25;;
71570;SDS011;59407;42.682;23.322;2023-03-21T10:59:20;14.82;;;8.57;;
71570;SDS011;59407;42.682;23.322;2023-03-21T11:01:50;15.15;;;8.80;;
71570;SDS011;59407;42.682;23.322;2023-03-21T11:04:18;13.60;;;8.73;;
71570;SDS011;59407;42.682;23.322;2023-03-21T11:06:49;22.27;;;9.20;;
71570;SDS011;59407;42.682;23.322;2023-03-21T11:09:18;16.60;;;9.57;;
71570;SDS011;59407;42.682;23.322;2023-03-21T11:12:09;14.73;;;7.85;;
71570;SDS011;59407;42.682;23.322;2023-03-21T11:14:40;14.10;;;8.40;;
71570;SDS011;59407;42.682;23.322;2023-03-21T11:19:40;13.57;;;6.70;;
71570;SDS011;59407;42.682;23.322;2023-03-21T11:22:06;10.88;;;7.10;;
71570;SDS011;59407;42.682;23.322;2023-03-21T11:24:36;10.67;;;5.50;;
71570;SDS011;59407;42.682;23.322;2023-03-21T11:27:06;10.88;;;6.10;;
71570;SDS011;59407;42.682;23.322;2023-03-21T11:29:38;10.63;;;6.63;;
71570;SDS011;59407;42.682;23.322;2023-03-21T11:32:29;13.20;;;6.78;;
71570;SDS011;59407;42.682;23.322;2023-03-21T11:37:49;10.43;;;5.77;;
71570;SDS011;59407;42.682;23.322;2023-03-21T11:40:29;9.25;;;5.35;;
71570;SDS011;59407;42.682;23.322;2023-03-21T11:42:59;8.00;;;5.30;;
71570;SDS011;59407;42.682;23.322;2023-03-21T11:45:26;9.48;;;5.60;;
71570;SDS011;59407;42.682;23.322;2023-03-21T11:48:11;6.45;;;4.10;;
71570;SDS011;59407;42.682;23.322;2023-03-21T11:54:03;9.35;;;4.63;;
71570;SDS011;59407;42.682;23.322;2023-03-21T11:56:38;6.90;;;4.53;;
71570;SDS011;59407;42.682;23.322;2023-03-21T12:12:44;7.05;;;4.43;;
71570;SDS011;59407;42.682;23.322;2023-03-21T12:27:07;7.90;;;4.20;;
71570;SDS011;59407;42.682;23.322;2023-03-21T12:30:01;8.48;;;4.30;;
71570;SDS011;59407;42.682;23.322;2023-03-21T12:38:15;5.82;;;3.60;;
71570;SDS011;59407;42.682;23.322;2023-03-21T12:40:47;6.80;;;4.00;;
71570;SDS011;59407;42.682;23.322;2023-03-21T12:44:21;7.38;;;4.30;;
71570;SDS011;59407;42.682;23.322;2023-03-21T12:49:31;8.10;;;4.03;;
71570;SDS011;59407;42.682;23.322;2023-03-21T12:52:02;7.25;;;4.18;;
71570;SDS011;59407;42.682;23.322;2023-03-21T12:54:31;8.45;;;4.57;;
71570;SDS011;59407;42.682;23.322;2023-03-21T12:57:10;8.32;;;4.72;;
71570;SDS011;59407;42.682;23.322;2023-03-21T12:59:46;7.37;;;4.03;;
71570;SDS011;59407;42.682;23.322;2023-03-21T13:05:19;7.97;;;4.30;;
71570;SDS011;59407;42.682;23.322;2023-03-21T13:08:00;8.23;;;4.38;;
71570;SDS011;59407;42.682;23.322;2023-03-21T13:10:29;8.90;;;4.10;;
71570;SDS011;59407;42.682;23.322;2023-03-21T13:13:00;8.00;;;4.03;;
71570;SDS011;59407;42.682;23.322;2023-03-21T13:15:31;7.18;;;3.97;;
71570;SDS011;59407;42.682;23.322;2023-03-21T13:20:50;9.25;;;4.40;;
71570;SDS011;59407;42.682;23.322;2023-03-21T13:23:20;10.00;;;4.55;;
71570;SDS011;59407;42.682;23.322;2023-03-21T13:25:49;6.87;;;4.10;;
71570;SDS011;59407;42.682;23.322;2023-03-21T13:28:21;8.00;;;4.35;;
71570;SDS011;59407;42.682;23.322;2023-03-21T13:30:51;8.23;;;4.60;;
71570;SDS011;59407;42.682;23.322;2023-03-21T13:33:28;8.00;;;4.20;;
71570;SDS011;59407;42.682;23.322;2023-03-21T13:36:17;11.07;;;5.30;;
71570;SDS011;59407;42.682;23.322;2023-03-21T13:38:49;7.18;;;4.53;;
71570;SDS011;59407;42.682;23.322;2023-03-21T13:41:29;12.00;;;5.95;;
71570;SDS011;59407;42.682;23.322;2023-03-21T13:53:59;7.73;;;4.23;;
71570;SDS011;59407;42.682;23.322;2023-03-21T13:56:25;8.60;;;4.47;;
71570;SDS011;59407;42.682;23.322;2023-03-21T13:59:02;6.57;;;3.65;;
71570;SDS011;59407;42.682;23.322;2023-03-21T14:01:33;6.85;;;4.47;;
71570;SDS011;59407;42.682;23.322;2023-03-21T14:09:19;11.23;;;4.68;;
71570;SDS011;59407;42.682;23.322;2023-03-21T14:11:48;6.53;;;4.13;;
71570;SDS011;59407;42.682;23.322;2023-03-21T14:14:16;9.88;;;5.05;;
71570;SDS011;59407;42.682;23.322;2023-03-21T14:16:42;10.18;;;6.25;;
71570;SDS011;59407;42.682;23.322;2023-03-21T14:19:09;11.27;;;4.97;;
71570;SDS011;59407;42.682;23.322;2023-03-21T14:21:35;7.57;;;4.43;;
71570;SDS011;59407;42.682;23.322;2023-03-21T14:24:05;11.93;;;6.83;;
71570;SDS011;59407;42.682;23.322;2023-03-21T14:26:37;8.80;;;4.45;;
71570;SDS011;59407;42.682;23.322;2023-03-21T14:29:05;16.30;;;6.35;;
71570;SDS011;59407;42.682;23.322;2023-03-21T14:31:34;10.57;;;5.35;;
71570;SDS011;59407;42.682;23.322;2023-03-21T14:34:00;7.05;;;4.55;;
71570;SDS011;59407;42.682;23.322;2023-03-21T14:36:30;9.97;;;5.80;;
71570;SDS011;59407;42.682;23.322;2023-03-21T14:39:11;8.30;;;5.43;;
71570;SDS011;59407;42.682;23.322;2023-03-21T14:41:46;9.15;;;5.00;;
71570;SDS011;59407;42.682;23.322;2023-03-21T14:47:07;6.75;;;4.25;;
71570;SDS011;59407;42.682;23.322;2023-03-21T14:49:40;9.50;;;5.50;;
71570;SDS011;59407;42.682;23.322;2023-03-21T14:52:08;9.13;;;5.40;;
71570;SDS011;59407;42.682;23.322;2023-03-21T14:54:37;13.23;;;6.70;;
71570;SDS011;59407;42.682;23.322;2023-03-21T14:57:06;12.23;;;5.38;;
71570;SDS011;59407;42.682;23.322;2023-03-21T14:59:35;9.00;;;4.75;;
71570;SDS011;59407;42.682;23.322;2023-03-21T15:05:13;7.97;;;4.63;;
71570;SDS011;59407;42.682;23.322;2023-03-21T15:07:51;8.50;;;5.13;;
71570;SDS011;59407;42.682;23.322;2023-03-21T15:10:21;8.45;;;5.70;;
71570;SDS011;59407;42.682;23.322;2023-03-21T15:12:55;10.20;;;5.65;;
71570;SDS011;59407;42.682;23.322;2023-03-21T15:15:24;8.60;;;5.05;;
71570;SDS011;59407;42.682;23.322;2023-03-21T15:17:51;7.78;;;5.30;;
71570;SDS011;59407;42.682;23.322;2023-03-21T15:20:20;10.13;;;4.77;;
71570;SDS011;59407;42.682;23.322;2023-03-21T15:22:49;10.20;;;7.47;;
71570;SDS011;59407;42.682;23.322;2023-03-21T15:25:20;10.07;;;5.43;;
71570;SDS011;59407;42.682;23.322;2023-03-21T15:27:47;10.13;;;7.18;;
71570;SDS011;59407;42.682;23.322;2023-03-21T15:30:32;10.10;;;6.18;;
71570;SDS011;59407;42.682;23.322;2023-03-21T15:33:09;10.17;;;7.03;;
71570;SDS011;59407;42.682;23.322;2023-03-21T15:35:37;12.70;;;7.50;;
71570;SDS011;59407;42.682;23.322;2023-03-21T15:38:06;9.18;;;6.30;;
71570;SDS011;59407;42.682;23.322;2023-03-21T15:40:45;9.57;;;6.32;;
71570;SDS011;59407;42.682;23.322;2023-03-21T15:43:15;12.10;;;6.57;;
71570;SDS011;59407;42.682;23.322;2023-03-21T15:48:28;11.43;;;7.57;;
71570;SDS011;59407;42.682;23.322;2023-03-21T15:51:17;12.23;;;6.35;;
71570;SDS011;59407;42.682;23.322;2023-03-21T15:53:46;9.32;;;6.43;;
71570;SDS011;59407;42.682;23.322;2023-03-21T15:56:12;11.27;;;7.00;;
71570;SDS011;59407;42.682;23.322;2023-03-21T15:58:46;12.97;;;7.70;;
71570;SDS011;59407;42.682;23.322;2023-03-21T16:01:19;13.50;;;8.23;;
71570;SDS011;59407;42.682;23.322;2023-03-21T16:03:47;14.13;;;7.30;;
71570;SDS011;59407;42.682;23.322;2023-03-21T16:06:31;11.88;;;7.93;;
71570;SDS011;59407;42.682;23.322;2023-03-21T16:09:11;15.80;;;8.70;;
71570;SDS011;59407;42.682;23.322;2023-03-21T16:11:51;14.43;;;8.67;;
71570;SDS011;59407;42.682;23.322;2023-03-21T16:14:18;16.15;;;9.65;;
71570;SDS011;59407;42.682;23.322;2023-03-21T16:16:47;12.93;;;8.70;;